Datos actuales meteorológicos del Aeropuerto de Valencia      LEVC Valencia



Temperatura
24°C Temperatura
13°C Punto de rocío
50% Humedad



Viento
0 KM/H
0 MPH
0 M/S
0 NUDO



Calma
Norte
Condiciones actuales

Claro Claro
Presión 1009.92 (hPa) - 29.82 (inHg)
Visibilidad 6.2 (milla) - 10 (km)
✈️ Manises
Código de aeropuerto LEVC

localidad: Valencia
Distancia de Meteo Lliria: 18 (km)

Metar:
LEVC 060700Z 00000KT CAVOK 24/13 Q1010 NOSIG

Hora: 06-06-2020 09:00 CEST

Follow @meteolliria2013